createdAt,value
2018-07-17T10:24:24.402Z,22.76
2018-07-17T10:26:53.556Z,22.48
2018-07-17T10:29:22.730Z,21.87
2018-07-17T10:31:51.890Z,21.66
2018-07-17T10:34:21.161Z,21.48
2018-07-17T10:36:50.280Z,21.05
2018-07-17T10:39:19.466Z,21.76
2018-07-17T10:41:48.579Z,22.00
2018-07-17T10:44:17.744Z,21.97
2018-07-17T10:46:46.958Z,21.68
2018-07-17T10:49:16.061Z,22.14
2018-07-17T10:51:45.336Z,22.50
2018-07-17T10:54:14.453Z,23.28
2018-07-17T10:56:43.633Z,23.55
2018-07-17T10:59:12.853Z,23.44
2018-07-17T11:01:42.031Z,24.52
2018-07-17T11:04:11.184Z,24.83
2018-07-17T11:06:40.343Z,25.48
2018-07-17T11:09:09.458Z,25.52
2018-07-17T11:11:38.571Z,26.27
2018-07-17T11:14:08.225Z,25.94
2018-07-17T11:16:37.594Z,26.26
2018-07-17T11:19:06.913Z,26.39
2018-07-17T11:21:36.092Z,27.16
2018-07-17T11:24:05.536Z,26.84
2018-07-17T11:26:35.671Z,27.85
2018-07-17T11:29:04.864Z,27.47
2018-07-17T11:31:33.985Z,28.81
2018-07-17T11:34:03.129Z,28.72
2018-07-17T11:36:32.599Z,29.52
2018-07-17T11:39:01.747Z,29.30
2018-07-17T11:41:30.894Z,29.78
2018-07-17T11:44:00.052Z,30.21
2018-07-17T11:46:29.238Z,30.97
2018-07-17T11:48:58.430Z,31.08
2018-07-17T11:51:27.642Z,31.41
2018-07-17T11:53:56.807Z,31.87
2018-07-17T11:56:26.267Z,31.67
2018-07-17T11:58:55.501Z,32.01
2018-07-17T12:01:24.747Z,32.08
2018-07-17T12:03:53.898Z,32.22
2018-07-17T12:06:23.043Z,31.96
2018-07-17T12:08:52.262Z,31.59
2018-07-17T12:11:21.395Z,31.41
2018-07-17T12:13:50.507Z,31.25
2018-07-17T12:16:21.038Z,30.92
2018-07-17T12:18:51.506Z,31.59
2018-07-17T12:21:20.636Z,31.40
2018-07-17T12:23:49.819Z,31.54
2018-07-17T12:26:18.948Z,32.47
2018-07-17T12:28:48.112Z,32.46
2018-07-17T12:31:17.286Z,31.42
2018-07-17T12:33:46.827Z,30.90
2018-07-17T12:36:16.063Z,31.55
2018-07-17T12:38:45.989Z,31.42
2018-07-17T12:41:15.508Z,32.52
2018-07-17T12:43:44.683Z,31.74
2018-07-17T12:46:13.984Z,31.29
2018-07-17T12:48:43.138Z,32.08
2018-07-17T12:51:12.511Z,32.71
2018-07-17T12:53:41.746Z,32.84
2018-07-17T12:56:10.886Z,32.38
2018-07-17T12:58:40.039Z,33.03
2018-07-17T13:01:09.266Z,32.17
2018-07-17T13:03:38.522Z,31.83
2018-07-17T13:06:07.729Z,31.80
2018-07-17T13:08:36.887Z,32.27
2018-07-17T13:11:06.114Z,31.79
2018-07-17T13:13:35.254Z,31.81
2018-07-17T13:16:04.440Z,31.79
2018-07-17T13:18:33.570Z,32.07
2018-07-17T13:21:02.813Z,31.40
2018-07-17T13:23:31.944Z,31.25
2018-07-17T13:26:01.933Z,31.85
2018-07-17T13:28:31.100Z,31.83
2018-07-17T13:31:00.237Z,31.81
2018-07-17T13:33:29.380Z,31.54
2018-07-17T13:35:58.563Z,31.90
2018-07-17T13:38:27.786Z,32.39
2018-07-17T13:40:56.903Z,31.42
2018-07-17T13:43:26.088Z,32.23
2018-07-17T13:45:55.268Z,31.39
2018-07-17T13:48:24.462Z,31.45
2018-07-17T13:50:53.665Z,31.28
2018-07-17T13:53:22.801Z,30.84
2018-07-17T13:55:51.963Z,31.58
2018-07-17T13:58:21.342Z,31.47
2018-07-17T14:00:50.627Z,31.30
2018-07-17T14:03:19.846Z,30.54
2018-07-17T14:05:49.029Z,30.91
2018-07-17T14:08:18.415Z,30.38
2018-07-17T14:10:47.605Z,30.22
2018-07-17T14:13:16.782Z,30.49
2018-07-17T14:15:45.926Z,30.63
2018-07-17T14:18:15.106Z,31.49
2018-07-17T14:20:44.294Z,31.05
2018-07-17T14:23:13.471Z,30.28
2018-07-17T14:25:42.686Z,30.35
2018-07-17T14:28:11.831Z,30.33
2018-07-17T14:30:41.030Z,30.61
2018-07-17T14:33:10.284Z,31.22
2018-07-17T14:35:39.530Z,30.89
2018-07-17T14:38:08.673Z,31.92
2018-07-17T14:40:37.859Z,31.88
2018-07-17T14:43:07.217Z,32.45
2018-07-17T14:45:36.515Z,32.48
2018-07-17T14:48:06.203Z,33.20
2018-07-17T14:50:35.717Z,33.26
2018-07-17T14:53:04.961Z,32.46
2018-07-17T14:55:34.245Z,32.74
2018-07-17T14:58:03.418Z,33.71
2018-07-17T15:00:32.581Z,34.04
2018-07-17T15:03:01.791Z,33.40
2018-07-17T15:05:34.064Z,33.63
2018-07-17T15:08:03.197Z,33.72
2018-07-17T15:10:32.666Z,33.42
2018-07-17T15:13:01.803Z,34.55
2018-07-17T15:15:31.126Z,33.41
2018-07-17T15:18:00.269Z,33.60
2018-07-17T15:20:29.439Z,33.17
2018-07-17T15:22:58.591Z,33.98
2018-07-17T15:25:27.804Z,33.84
2018-07-17T15:27:57.012Z,34.51
2018-07-17T15:30:26.093Z,34.22
2018-07-17T15:32:55.234Z,34.82
2018-07-17T15:35:24.416Z,35.00
2018-07-17T15:37:53.612Z,34.65
2018-07-17T15:40:23.039Z,35.37
2018-07-17T15:42:52.224Z,36.63
2018-07-17T15:45:21.433Z,36.09
2018-07-17T15:47:50.570Z,36.65
2018-07-17T15:50:19.776Z,37.29
2018-07-17T15:52:49.096Z,37.30
2018-07-17T15:55:18.642Z,37.21
2018-07-17T15:57:47.771Z,37.55
2018-07-17T16:00:16.959Z,38.33
2018-07-17T16:02:46.147Z,38.23
2018-07-17T16:05:15.284Z,37.95
2018-07-17T16:07:44.434Z,38.37
2018-07-17T16:10:13.704Z,38.17
2018-07-17T16:12:42.830Z,38.70
2018-07-17T16:15:11.987Z,38.59
2018-07-17T16:17:41.160Z,38.60
2018-07-17T16:20:10.443Z,39.95
2018-07-17T16:22:39.735Z,38.83
2018-07-17T16:25:08.878Z,40.07
2018-07-17T16:27:38.028Z,39.00
2018-07-17T16:30:07.963Z,40.09
2018-07-17T16:32:37.086Z,41.36
2018-07-17T16:35:06.231Z,41.57
2018-07-17T16:37:35.394Z,42.30
2018-07-17T16:40:04.638Z,41.82
2018-07-17T16:42:33.767Z,44.03
2018-07-17T16:45:02.894Z,44.43
2018-07-17T16:47:32.150Z,45.74
2018-07-17T16:50:01.278Z,45.89
2018-07-17T16:52:30.402Z,47.11
2018-07-17T16:54:59.530Z,48.17
2018-07-17T16:57:28.682Z,47.57
2018-07-17T16:59:57.633Z,47.88
2018-07-17T17:02:26.788Z,48.29
2018-07-17T17:04:55.917Z,49.17
2018-07-17T17:07:25.043Z,49.53
2018-07-17T17:09:54.246Z,49.66
2018-07-17T17:12:23.635Z,50.08
2018-07-17T17:14:52.775Z,49.78
2018-07-17T17:17:21.933Z,50.10
2018-07-17T17:19:51.057Z,49.30
2018-07-17T17:22:20.215Z,49.54
2018-07-17T17:24:49.541Z,49.83
2018-07-17T17:27:24.937Z,50.08
2018-07-17T17:29:54.184Z,49.53
2018-07-17T17:32:23.385Z,49.65
2018-07-17T17:34:52.899Z,50.45
2018-07-17T17:37:22.091Z,50.47
2018-07-17T17:39:51.367Z,50.23
2018-07-17T17:42:20.512Z,51.26
2018-07-17T17:44:50.928Z,51.45
2018-07-17T17:47:20.913Z,51.23
2018-07-17T17:49:50.237Z,51.48
2018-07-17T17:52:19.584Z,51.30
2018-07-17T17:54:48.857Z,51.29
2018-07-17T17:57:18.792Z,51.29
2018-07-17T17:59:48.231Z,51.47
2018-07-17T18:02:17.578Z,51.46
2018-07-17T18:04:47.865Z,51.53
2018-07-17T18:07:17.065Z,51.75
2018-07-17T18:09:46.234Z,51.31
2018-07-17T18:12:15.525Z,52.05
2018-07-17T18:14:44.719Z,51.73
2018-07-17T18:17:14.129Z,52.12
2018-07-17T18:19:43.571Z,52.81
2018-07-17T18:22:12.784Z,52.70
2018-07-17T18:24:42.097Z,53.54
2018-07-17T18:27:11.349Z,53.94
2018-07-17T18:29:42.041Z,53.49
2018-07-17T18:32:11.297Z,54.37
2018-07-17T18:34:40.433Z,54.76
2018-07-17T18:37:09.766Z,54.72
2018-07-17T18:39:39.291Z,55.31
2018-07-17T18:42:08.609Z,54.51
2018-07-17T18:44:38.374Z,55.83
2018-07-17T18:47:08.806Z,55.82
2018-07-17T18:49:38.424Z,56.09
2018-07-17T18:52:07.931Z,56.16
2018-07-17T18:54:37.268Z,55.80
2018-07-17T18:57:06.424Z,56.15
2018-07-17T18:59:35.746Z,55.93
2018-07-17T19:02:06.190Z,56.77
2018-07-17T19:04:35.530Z,56.16
2018-07-17T19:07:06.189Z,56.15
2018-07-17T19:09:35.363Z,56.89
2018-07-17T19:12:04.894Z,57.30
2018-07-17T19:14:34.132Z,56.77
2018-07-17T19:17:04.374Z,57.12
2018-07-17T19:19:33.665Z,57.77
2018-07-17T19:22:03.922Z,58.08
2018-07-17T19:24:33.256Z,58.03
2018-07-17T19:27:02.549Z,57.75
2018-07-17T19:29:32.157Z,57.91
2018-07-17T19:32:01.492Z,58.78
2018-07-17T19:34:31.274Z,58.90
2018-07-17T19:37:01.376Z,58.59
2018-07-17T19:39:30.766Z,58.31
2018-07-17T19:42:00.159Z,58.79
2018-07-17T19:44:29.482Z,59.08
2018-07-17T19:46:59.068Z,58.61
2018-07-17T19:49:28.390Z,59.19
2018-07-17T19:51:57.654Z,58.95
2018-07-17T19:54:27.088Z,58.92
2018-07-17T19:56:56.310Z,59.35
2018-07-17T19:59:25.579Z,59.46
2018-07-17T20:01:54.958Z,59.31
2018-07-17T20:04:24.112Z,58.86
2018-07-17T20:06:54.505Z,59.51
2018-07-17T20:09:24.361Z,59.52
2018-07-17T20:11:53.975Z,59.07
2018-07-17T20:14:24.401Z,59.90
2018-07-17T20:16:53.682Z,60.70
2018-07-17T20:19:22.998Z,60.09
2018-07-17T20:21:52.323Z,60.42
2018-07-17T20:24:21.584Z,61.50
2018-07-17T20:26:50.849Z,61.41
2018-07-17T20:29:20.304Z,61.37
2018-07-17T20:31:49.551Z,62.15
2018-07-17T20:34:22.276Z,61.31
2018-07-17T20:36:51.457Z,62.04
2018-07-17T20:39:20.714Z,62.00
2018-07-17T20:41:49.939Z,61.98
2018-07-17T20:44:21.035Z,62.47
2018-07-17T20:46:50.306Z,63.01
2018-07-17T20:49:19.431Z,63.25
2018-07-17T20:51:48.380Z,63.34
2018-07-17T20:54:17.635Z,63.27
2018-07-17T20:56:46.934Z,63.09
2018-07-17T20:59:16.079Z,62.79
2018-07-17T21:01:45.262Z,63.17
2018-07-17T21:04:14.472Z,63.09
2018-07-17T21:06:45.074Z,63.36
2018-07-17T21:09:15.119Z,63.93
2018-07-17T21:11:45.586Z,63.24
2018-07-17T21:14:14.758Z,63.38
2018-07-17T21:16:44.357Z,63.25
2018-07-17T21:19:13.770Z,63.99
2018-07-17T21:21:43.118Z,63.64
2018-07-17T21:24:12.391Z,64.30
2018-07-17T21:26:41.700Z,64.40
2018-07-17T21:29:11.695Z,64.29
2018-07-17T21:31:40.834Z,64.25
2018-07-17T21:34:10.628Z,64.37
2018-07-17T21:36:39.860Z,64.56
2018-07-17T21:39:10.609Z,64.22
2018-07-17T21:41:40.639Z,64.92
2018-07-17T21:44:10.730Z,64.47
2018-07-17T21:46:40.368Z,65.33
2018-07-17T21:49:09.561Z,65.53
2018-07-17T21:51:38.814Z,64.78
2018-07-17T21:54:08.121Z,65.20
2018-07-17T21:56:37.432Z,65.78
2018-07-17T21:59:06.932Z,65.93
2018-07-17T22:01:36.199Z,65.76
2018-07-17T22:04:05.772Z,66.14
2018-07-17T22:06:35.063Z,65.83
2018-07-17T22:09:05.987Z,65.51
2018-07-17T22:11:35.243Z,65.56
2018-07-17T22:14:05.039Z,66.26
2018-07-17T22:16:34.480Z,66.28
2018-07-17T22:19:03.832Z,65.74
2018-07-17T22:21:33.739Z,66.58
2018-07-17T22:24:03.053Z,65.82
2018-07-17T22:26:32.677Z,65.96
2018-07-17T22:29:02.064Z,66.20
2018-07-17T22:31:31.202Z,66.12
2018-07-17T22:34:00.471Z,66.72
2018-07-17T22:36:29.744Z,66.89
2018-07-17T22:38:58.974Z,66.04
2018-07-17T22:41:28.300Z,66.36
2018-07-17T22:43:57.769Z,66.96
2018-07-17T22:46:26.993Z,66.81
2018-07-17T22:48:56.208Z,67.00
2018-07-17T22:51:25.435Z,66.83
2018-07-17T22:53:54.659Z,66.61
2018-07-17T22:56:23.824Z,66.72
2018-07-17T22:58:54.063Z,67.17
2018-07-17T23:01:23.255Z,66.88
2018-07-17T23:03:52.581Z,67.37
2018-07-17T23:06:22.054Z,67.41
2018-07-17T23:08:52.264Z,66.73
2018-07-17T23:11:21.614Z,67.16
2018-07-17T23:13:50.725Z,67.18
2018-07-17T23:16:20.464Z,66.91
2018-07-17T23:18:49.713Z,67.21
2018-07-17T23:21:19.113Z,67.79
2018-07-17T23:23:48.284Z,67.59
2018-07-17T23:26:18.372Z,67.31
2018-07-17T23:28:47.559Z,67.10
2018-07-17T23:31:16.958Z,67.24
2018-07-17T23:33:46.191Z,67.41
2018-07-17T23:36:15.362Z,67.15
2018-07-17T23:38:44.543Z,68.04
2018-07-17T23:41:14.578Z,68.16
2018-07-17T23:43:43.842Z,68.05
2018-07-17T23:46:13.296Z,67.77
2018-07-17T23:48:42.439Z,67.63
2018-07-17T23:51:11.680Z,68.32
2018-07-17T23:53:40.794Z,67.80
2018-07-17T23:56:10.444Z,68.42
2018-07-17T23:58:39.853Z,67.89
